Venus Seven — H9RN — position and weather

sailwx.info

Track history (hours):
 
Tides and Currents Weather Stations Pressure Air Temp Water Temp Dewpoint Dewpoint Depression Visibility Wind Speed Wind Dir Waves Ship Positions

Venus Seven

Last reported at 2015-May-18 15:14 UTC. Time now 2015-May-22 16:11 UTC.
Position N 22°46' E 120°06'.

Length 93 m; draft 4.6 m.

Type: Cargo ship. MMSI: 353405000.

Date/timePositionNaut miles runAvg speedWind from/ knotsBaromVisibWave heightAir tempDewpointWater temp
2015-May-18 15:14N 22°46' E 120°06'913.7
2015-May-18 14:33N 22°38' E 120°11'10 9.6
2015-May-18 13:33N 22°33' E 120°20'2 0.2
2015-May-18 05:33N 22°34' E 120°19'2 2.3
2015-May-18 04:32N 22°36' E 120°18'0 0.1
2015-May-18 03:32N 22°36' E 120°18'0 0.0
2015-May-18 02:32N 22°36' E 120°18'0 0.0
2015-May-18 01:32N 22°36' E 120°18'0 0.0
2015-May-18 00:32N 22°36' E 120°18'0 0.1
2015-May-17 23:33N 22°36' E 120°18'4 4.0
2015-May-17 22:33N 22°37' E 120°14'1211.7
2015-May-17 21:33N 22°46' E 120°05'  
2015-May-13 09:33N 33°59' E 134°56'1312.5
2015-May-13 08:32N 34°11' E 134°57'2311.3
2015-May-13 06:29N 34°31' E 135°12'9 9.4
2015-May-13 05:33N 34°37' E 135°21'4 3.4
2015-May-13 04:27N 34°38' E 135°25'0 0.0
2015-May-13 03:33N 34°38' E 135°25'0 0.0
2015-May-13 02:27N 34°38' E 135°25'0 0.0
2015-May-13 01:33N 34°38' E 135°25'0 0.0
2015-May-13 00:33N 34°38' E 135°25'0 0.0
2015-May-12 23:27N 34°38' E 135°25'0 0.0
2015-May-12 22:33N 34°38' E 135°25'1 0.8
2015-May-12 21:33N 34°39' E 135°25'1 1.1
2015-May-12 20:32N 34°39' E 135°26'0 0.0
2015-May-12 19:20N 34°39' E 135°26'0 0.0
2015-May-12 18:32N 34°39' E 135°26'0 0.0
2015-May-12 17:32N 34°39' E 135°26'0 0.0
2015-May-12 16:32N 34°39' E 135°26'0 0.0
2015-May-12 15:32N 34°39' E 135°26'0 0.0
2015-May-12 14:32N 34°39' E 135°26'0 0.0
2015-May-12 13:26N 34°39' E 135°26'0 0.0
2015-May-12 12:32N 34°39' E 135°26'0 0.0
2015-May-12 11:32N 34°39' E 135°26'0 0.0
2015-May-12 10:26N 34°39' E 135°26'0 0.0
2015-May-12 09:32N 34°39' E 135°26'0 0.0
2015-May-12 08:32N 34°39' E 135°26'0 0.0
2015-May-12 07:20N 34°39' E 135°26'0 0.0
2015-May-12 06:32N 34°39' E 135°26'0 0.0
2015-May-12 05:32N 34°39' E 135°26'0 0.0
2015-May-12 04:20N 34°39' E 135°26'0 0.0
2015-May-12 03:32N 34°39' E 135°26'0 0.0
2015-May-12 02:32N 34°39' E 135°26'0 0.0
2015-May-12 01:20N 34°39' E 135°26'0 0.0
2015-May-12 00:32N 34°39' E 135°26'0 0.0
2015-May-11 23:32N 34°39' E 135°26'0 0.0
2015-May-11 22:32N 34°39' E 135°26'4 4.2
2015-May-11 21:30N 34°37' E 135°22'0 0.0
2015-May-11 20:30N 34°37' E 135°22'0 0.0
2015-May-11 19:30N 34°37' E 135°22'0 0.0
2015-May-11 18:30N 34°37' E 135°22'0 0.0
2015-May-11 17:18N 34°37' E 135°22'0 0.0
2015-May-11 16:30N 34°37' E 135°22'0 0.0
2015-May-11 15:30N 34°37' E 135°22'1 1.0
2015-May-11 14:33N 34°36' E 135°21'1313.0
2015-May-11 13:33N 34°35' E 135°05'  
Track history (hours):
 
Tides and Currents Weather Stations Pressure Air Temp Water Temp Dewpoint Dewpoint Depression Visibility Wind Speed Wind Dir Waves Ship Positions

Venus Seven

Last reported at 2015-May-18 15:14 UTC. Time now 2015-May-22 16:11 UTC.
Position N 22°46' E 120°06'.

Length 93 m; draft 4.6 m.

Type: Cargo ship. MMSI: 353405000.

Date/timePositionNaut miles runAvg speedWind from/ knotsBaromVisibWave heightAir tempDewpointWater temp
2015-May-18 15:14N 22°46' E 120°06'913.7
2015-May-18 14:33N 22°38' E 120°11'10 9.6
2015-May-18 13:33N 22°33' E 120°20'2 0.2
2015-May-18 05:33N 22°34' E 120°19'2 2.3
2015-May-18 04:32N 22°36' E 120°18'0 0.1
2015-May-18 03:32N 22°36' E 120°18'0 0.0
2015-May-18 02:32N 22°36' E 120°18'0 0.0
2015-May-18 01:32N 22°36' E 120°18'0 0.0
2015-May-18 00:32N 22°36' E 120°18'0 0.1
2015-May-17 23:33N 22°36' E 120°18'4 4.0
2015-May-17 22:33N 22°37' E 120°14'1211.7
2015-May-17 21:33N 22°46' E 120°05'  
2015-May-13 09:33N 33°59' E 134°56'1312.5
2015-May-13 08:32N 34°11' E 134°57'2311.3
2015-May-13 06:29N 34°31' E 135°12'9 9.4
2015-May-13 05:33N 34°37' E 135°21'4 3.4
2015-May-13 04:27N 34°38' E 135°25'0 0.0
2015-May-13 03:33N 34°38' E 135°25'0 0.0
2015-May-13 02:27N 34°38' E 135°25'0 0.0
2015-May-13 01:33N 34°38' E 135°25'0 0.0
2015-May-13 00:33N 34°38' E 135°25'0 0.0
2015-May-12 23:27N 34°38' E 135°25'0 0.0
2015-May-12 22:33N 34°38' E 135°25'1 0.8
2015-May-12 21:33N 34°39' E 135°25'1 1.1
2015-May-12 20:32N 34°39' E 135°26'0 0.0
2015-May-12 19:20N 34°39' E 135°26'0 0.0
2015-May-12 18:32N 34°39' E 135°26'0 0.0
2015-May-12 17:32N 34°39' E 135°26'0 0.0
2015-May-12 16:32N 34°39' E 135°26'0 0.0
2015-May-12 15:32N 34°39' E 135°26'0 0.0
2015-May-12 14:32N 34°39' E 135°26'0 0.0
2015-May-12 13:26N 34°39' E 135°26'0 0.0
2015-May-12 12:32N 34°39' E 135°26'0 0.0
2015-May-12 11:32N 34°39' E 135°26'0 0.0
2015-May-12 10:26N 34°39' E 135°26'0 0.0
2015-May-12 09:32N 34°39' E 135°26'0 0.0
2015-May-12 08:32N 34°39' E 135°26'0 0.0
2015-May-12 07:20N 34°39' E 135°26'0 0.0
2015-May-12 06:32N 34°39' E 135°26'0 0.0
2015-May-12 05:32N 34°39' E 135°26'0 0.0
2015-May-12 04:20N 34°39' E 135°26'0 0.0
2015-May-12 03:32N 34°39' E 135°26'0 0.0
2015-May-12 02:32N 34°39' E 135°26'0 0.0
2015-May-12 01:20N 34°39' E 135°26'0 0.0
2015-May-12 00:32N 34°39' E 135°26'0 0.0
2015-May-11 23:32N 34°39' E 135°26'0 0.0
2015-May-11 22:32N 34°39' E 135°26'4 4.2
2015-May-11 21:30N 34°37' E 135°22'0 0.0
2015-May-11 20:30N 34°37' E 135°22'0 0.0
2015-May-11 19:30N 34°37' E 135°22'0 0.0
2015-May-11 18:30N 34°37' E 135°22'0 0.0
2015-May-11 17:18N 34°37' E 135°22'0 0.0
2015-May-11 16:30N 34°37' E 135°22'0 0.0
2015-May-11 15:30N 34°37' E 135°22'1 1.0
2015-May-11 14:33N 34°36' E 135°21'1313.0
2015-May-11 13:33N 34°35' E 135°05'  

Dump ship's entire track history